sensor_id;sensor_type;location;lat;lon;timestamp;temperature;humidity
40676;DHT22;26359;48.750;9.314;2023-08-30T00:00:07;13.80;99.90
40676;DHT22;26359;48.750;9.314;2023-08-30T00:02:33;13.70;99.90
40676;DHT22;26359;48.750;9.314;2023-08-30T00:04:59;13.70;99.90
40676;DHT22;26359;48.750;9.314;2023-08-30T00:07:26;13.70;99.90
40676;DHT22;26359;48.750;9.314;2023-08-30T00:09:51;13.70;99.90
40676;DHT22;26359;48.750;9.314;2023-08-30T00:12:17;13.70;99.90
40676;DHT22;26359;48.750;9.314;2023-08-30T00:14:42;13.70;99.90
40676;DHT22;26359;48.750;9.314;2023-08-30T00:17:08;13.70;99.90
40676;DHT22;26359;48.750;9.314;2023-08-30T00:19:34;13.70;99.90
40676;DHT22;26359;48.750;9.314;2023-08-30T00:21:59;13.70;99.90
40676;DHT22;26359;48.750;9.314;2023-08-30T00:24:25;13.70;99.90
40676;DHT22;26359;48.750;9.314;2023-08-30T00:26:50;13.70;99.90
40676;DHT22;26359;48.750;9.314;2023-08-30T00:29:16;13.70;99.90
40676;DHT22;26359;48.750;9.314;2023-08-30T00:31:41;13.70;99.90
40676;DHT22;26359;48.750;9.314;2023-08-30T00:34:07;13.70;99.90
40676;DHT22;26359;48.750;9.314;2023-08-30T00:36:32;13.70;99.90
40676;DHT22;26359;48.750;9.314;2023-08-30T00:38:58;13.70;99.90
40676;DHT22;26359;48.750;9.314;2023-08-30T00:41:23;13.70;99.90
40676;DHT22;26359;48.750;9.314;2023-08-30T00:43:49;13.70;99.90
40676;DHT22;26359;48.750;9.314;2023-08-30T00:46:15;13.70;99.90
40676;DHT22;26359;48.750;9.314;2023-08-30T00:48:41;13.70;99.90
40676;DHT22;26359;48.750;9.314;2023-08-30T00:51:07;13.60;99.90
40676;DHT22;26359;48.750;9.314;2023-08-30T00:53:33;13.60;99.90
40676;DHT22;26359;48.750;9.314;2023-08-30T00:55:58;13.60;99.90
40676;DHT22;26359;48.750;9.314;2023-08-30T00:58:25;13.60;99.90
40676;DHT22;26359;48.750;9.314;2023-08-30T01:00:52;13.60;99.90
40676;DHT22;26359;48.750;9.314;2023-08-30T01:03:19;13.60;99.90
40676;DHT22;26359;48.750;9.314;2023-08-30T01:05:47;13.60;99.90
40676;DHT22;26359;48.750;9.314;2023-08-30T01:08:12;13.60;99.90
40676;DHT22;26359;48.750;9.314;2023-08-30T01:13:12;13.50;99.90
40676;DHT22;26359;48.750;9.314;2023-08-30T01:15:42;13.50;99.90
40676;DHT22;26359;48.750;9.314;2023-08-30T01:18:09;13.40;99.90
40676;DHT22;26359;48.750;9.314;2023-08-30T01:20:37;13.50;99.90
40676;DHT22;26359;48.750;9.314;2023-08-30T01:23:29;13.40;99.90
40676;DHT22;26359;48.750;9.314;2023-08-30T01:26:08;13.40;99.90
40676;DHT22;26359;48.750;9.314;2023-08-30T01:28:35;13.40;99.90
40676;DHT22;26359;48.750;9.314;2023-08-30T01:31:03;13.40;99.90
40676;DHT22;26359;48.750;9.314;2023-08-30T01:33:29;13.40;99.90
40676;DHT22;26359;48.750;9.314;2023-08-30T01:35:59;13.40;99.90
40676;DHT22;26359;48.750;9.314;2023-08-30T01:38:26;13.40;99.90
40676;DHT22;26359;48.750;9.314;2023-08-30T01:40:53;13.40;99.90
40676;DHT22;26359;48.750;9.314;2023-08-30T01:43:20;13.40;99.90
40676;DHT22;26359;48.750;9.314;2023-08-30T01:45:47;13.40;99.90
40676;DHT22;26359;48.750;9.314;2023-08-30T01:48:15;13.40;99.90
40676;DHT22;26359;48.750;9.314;2023-08-30T01:50:42;13.40;99.90
40676;DHT22;26359;48.750;9.314;2023-08-30T01:53:11;13.40;99.90
40676;DHT22;26359;48.750;9.314;2023-08-30T01:55:37;13.40;99.90
40676;DHT22;26359;48.750;9.314;2023-08-30T01:58:04;13.40;99.90
40676;DHT22;26359;48.750;9.314;2023-08-30T02:00:29;13.30;99.90
40676;DHT22;26359;48.750;9.314;2023-08-30T02:02:56;13.40;99.90
40676;DHT22;26359;48.750;9.314;2023-08-30T02:05:22;13.30;99.90
40676;DHT22;26359;48.750;9.314;2023-08-30T02:08:04;13.20;99.90
40676;DHT22;26359;48.750;9.314;2023-08-30T02:10:35;13.20;99.90
40676;DHT22;26359;48.750;9.314;2023-08-30T02:13:03;13.20;99.90
40676;DHT22;26359;48.750;9.314;2023-08-30T02:15:31;13.20;99.90
40676;DHT22;26359;48.750;9.314;2023-08-30T02:17:58;13.10;99.90
40676;DHT22;26359;48.750;9.314;2023-08-30T02:20:24;13.10;99.90
40676;DHT22;26359;48.750;9.314;2023-08-30T02:22:50;13.10;99.90
40676;DHT22;26359;48.750;9.314;2023-08-30T02:25:16;13.10;99.90
40676;DHT22;26359;48.750;9.314;2023-08-30T02:27:41;13.20;99.90
40676;DHT22;26359;48.750;9.314;2023-08-30T02:30:07;13.20;99.90
40676;DHT22;26359;48.750;9.314;2023-08-30T02:32:33;13.20;99.90
40676;DHT22;26359;48.750;9.314;2023-08-30T02:34:59;13.20;99.90
40676;DHT22;26359;48.750;9.314;2023-08-30T02:37:25;13.20;99.90
40676;DHT22;26359;48.750;9.314;2023-08-30T02:39:51;13.30;99.90
40676;DHT22;26359;48.750;9.314;2023-08-30T02:42:16;13.20;99.90
40676;DHT22;26359;48.750;9.314;2023-08-30T02:44:42;13.30;99.90
40676;DHT22;26359;48.750;9.314;2023-08-30T02:47:07;13.30;99.90
40676;DHT22;26359;48.750;9.314;2023-08-30T02:49:33;13.30;99.90
40676;DHT22;26359;48.750;9.314;2023-08-30T02:51:59;13.30;99.90
40676;DHT22;26359;48.750;9.314;2023-08-30T02:54:24;13.30;99.90
40676;DHT22;26359;48.750;9.314;2023-08-30T02:56:50;13.30;99.90
40676;DHT22;26359;48.750;9.314;2023-08-30T02:59:15;13.30;99.90
40676;DHT22;26359;48.750;9.314;2023-08-30T03:01:41;13.30;99.90
40676;DHT22;26359;48.750;9.314;2023-08-30T03:04:07;13.30;99.90
40676;DHT22;26359;48.750;9.314;2023-08-30T03:06:34;13.40;99.90
40676;DHT22;26359;48.750;9.314;2023-08-30T03:09:00;13.30;99.90
40676;DHT22;26359;48.750;9.314;2023-08-30T03:11:25;13.30;99.90
40676;DHT22;26359;48.750;9.314;2023-08-30T03:13:53;13.30;99.90
40676;DHT22;26359;48.750;9.314;2023-08-30T03:16:19;13.30;99.90
40676;DHT22;26359;48.750;9.314;2023-08-30T03:18:45;13.30;99.90
40676;DHT22;26359;48.750;9.314;2023-08-30T03:21:10;13.30;99.90
40676;DHT22;26359;48.750;9.314;2023-08-30T03:23:37;13.30;99.90
40676;DHT22;26359;48.750;9.314;2023-08-30T03:26:12;13.20;99.90
40676;DHT22;26359;48.750;9.314;2023-08-30T03:28:39;13.30;99.90
40676;DHT22;26359;48.750;9.314;2023-08-30T03:31:15;13.20;99.90
40676;DHT22;26359;48.750;9.314;2023-08-30T03:33:41;13.20;99.90
40676;DHT22;26359;48.750;9.314;2023-08-30T03:36:11;13.20;99.90
40676;DHT22;26359;48.750;9.314;2023-08-30T03:38:37;13.10;99.90
40676;DHT22;26359;48.750;9.314;2023-08-30T03:41:03;13.10;99.90
40676;DHT22;26359;48.750;9.314;2023-08-30T03:43:32;13.20;99.90
40676;DHT22;26359;48.750;9.314;2023-08-30T03:45:59;13.20;99.90
40676;DHT22;26359;48.750;9.314;2023-08-30T03:48:26;13.10;99.90
40676;DHT22;26359;48.750;9.314;2023-08-30T03:50:52;13.10;99.90
40676;DHT22;26359;48.750;9.314;2023-08-30T03:53:17;13.10;99.90
40676;DHT22;26359;48.750;9.314;2023-08-30T03:55:43;13.10;99.90
40676;DHT22;26359;48.750;9.314;2023-08-30T03:58:08;13.00;99.90
40676;DHT22;26359;48.750;9.314;2023-08-30T04:00:37;13.00;99.90
40676;DHT22;26359;48.750;9.314;2023-08-30T04:03:04;13.00;99.90
40676;DHT22;26359;48.750;9.314;2023-08-30T04:05:36;13.00;99.90
40676;DHT22;26359;48.750;9.314;2023-08-30T04:08:04;13.00;99.90
40676;DHT22;26359;48.750;9.314;2023-08-30T04:10:29;13.00;99.90
40676;DHT22;26359;48.750;9.314;2023-08-30T04:12:59;13.00;99.90
40676;DHT22;26359;48.750;9.314;2023-08-30T04:15:24;13.00;99.90
40676;DHT22;26359;48.750;9.314;2023-08-30T04:17:50;13.00;99.90
40676;DHT22;26359;48.750;9.314;2023-08-30T04:20:15;13.10;99.90
40676;DHT22;26359;48.750;9.314;2023-08-30T04:22:41;13.10;99.90
40676;DHT22;26359;48.750;9.314;2023-08-30T04:25:07;13.10;99.90
40676;DHT22;26359;48.750;9.314;2023-08-30T04:27:34;13.10;99.90
40676;DHT22;26359;48.750;9.314;2023-08-30T04:30:01;13.10;99.90
40676;DHT22;26359;48.750;9.314;2023-08-30T04:32:27;13.10;99.90
40676;DHT22;26359;48.750;9.314;2023-08-30T04:34:53;13.10;99.90
40676;DHT22;26359;48.750;9.314;2023-08-30T04:37:18;13.10;99.90
40676;DHT22;26359;48.750;9.314;2023-08-30T04:39:47;13.10;99.90
40676;DHT22;26359;48.750;9.314;2023-08-30T04:42:13;13.10;99.90
40676;DHT22;26359;48.750;9.314;2023-08-30T04:44:38;13.10;99.90
40676;DHT22;26359;48.750;9.314;2023-08-30T04:47:04;13.10;99.90
40676;DHT22;26359;48.750;9.314;2023-08-30T04:49:29;13.20;99.90
40676;DHT22;26359;48.750;9.314;2023-08-30T04:51:55;13.10;99.90
40676;DHT22;26359;48.750;9.314;2023-08-30T04:54:21;13.10;99.90
40676;DHT22;26359;48.750;9.314;2023-08-30T04:56:46;13.10;99.90
40676;DHT22;26359;48.750;9.314;2023-08-30T04:59:12;13.10;99.90
40676;DHT22;26359;48.750;9.314;2023-08-30T05:01:37;13.10;99.90
40676;DHT22;26359;48.750;9.314;2023-08-30T05:04:04;13.10;99.90
40676;DHT22;26359;48.750;9.314;2023-08-30T05:06:31;13.10;99.90
40676;DHT22;26359;48.750;9.314;2023-08-30T05:08:56;13.10;99.90
40676;DHT22;26359;48.750;9.314;2023-08-30T05:11:23;13.10;99.90
40676;DHT22;26359;48.750;9.314;2023-08-30T05:13:49;13.20;99.90
40676;DHT22;26359;48.750;9.314;2023-08-30T05:16:14;13.20;99.90
40676;DHT22;26359;48.750;9.314;2023-08-30T05:18:40;13.20;99.90
40676;DHT22;26359;48.750;9.314;2023-08-30T05:21:05;13.20;99.90
40676;DHT22;26359;48.750;9.314;2023-08-30T05:23:31;13.20;99.90
40676;DHT22;26359;48.750;9.314;2023-08-30T05:25:57;13.20;99.90
40676;DHT22;26359;48.750;9.314;2023-08-30T05:28:22;13.20;99.90
40676;DHT22;26359;48.750;9.314;2023-08-30T05:30:48;13.20;99.90
40676;DHT22;26359;48.750;9.314;2023-08-30T05:33:13;13.20;99.90
40676;DHT22;26359;48.750;9.314;2023-08-30T05:35:39;13.30;99.90
40676;DHT22;26359;48.750;9.314;2023-08-30T05:38:04;13.30;99.90
40676;DHT22;26359;48.750;9.314;2023-08-30T05:40:31;13.30;99.90
40676;DHT22;26359;48.750;9.314;2023-08-30T05:42:56;13.40;99.90
40676;DHT22;26359;48.750;9.314;2023-08-30T05:45:22;13.40;99.90
40676;DHT22;26359;48.750;9.314;2023-08-30T05:47:47;13.50;99.90
40676;DHT22;26359;48.750;9.314;2023-08-30T05:50:13;13.40;99.90
40676;DHT22;26359;48.750;9.314;2023-08-30T05:52:39;13.40;99.90
40676;DHT22;26359;48.750;9.314;2023-08-30T05:55:07;13.70;99.90
40676;DHT22;26359;48.750;9.314;2023-08-30T05:57:33;13.70;99.90
40676;DHT22;26359;48.750;9.314;2023-08-30T06:00:00;13.70;99.90
40676;DHT22;26359;48.750;9.314;2023-08-30T06:02:25;13.60;99.90
40676;DHT22;26359;48.750;9.314;2023-08-30T06:04:51;13.60;99.90
40676;DHT22;26359;48.750;9.314;2023-08-30T06:07:16;13.60;99.90
40676;DHT22;26359;48.750;9.314;2023-08-30T06:09:42;13.60;99.90
40676;DHT22;26359;48.750;9.314;2023-08-30T06:12:08;13.50;99.90
40676;DHT22;26359;48.750;9.314;2023-08-30T06:14:33;13.60;99.90
40676;DHT22;26359;48.750;9.314;2023-08-30T06:16:59;13.70;99.90
40676;DHT22;26359;48.750;9.314;2023-08-30T06:19:25;13.70;99.90
40676;DHT22;26359;48.750;9.314;2023-08-30T06:21:50;13.70;99.90
40676;DHT22;26359;48.750;9.314;2023-08-30T06:24:16;13.70;99.90
40676;DHT22;26359;48.750;9.314;2023-08-30T06:26:41;13.70;99.90
40676;DHT22;26359;48.750;9.314;2023-08-30T06:29:07;13.70;99.90
40676;DHT22;26359;48.750;9.314;2023-08-30T06:31:32;13.70;99.90
40676;DHT22;26359;48.750;9.314;2023-08-30T06:33:58;13.70;99.90
40676;DHT22;26359;48.750;9.314;2023-08-30T06:36:23;13.70;99.90
40676;DHT22;26359;48.750;9.314;2023-08-30T06:38:49;13.70;99.90
40676;DHT22;26359;48.750;9.314;2023-08-30T06:41:15;13.70;99.90
40676;DHT22;26359;48.750;9.314;2023-08-30T06:43:40;13.60;99.90
40676;DHT22;26359;48.750;9.314;2023-08-30T06:46:06;13.70;99.90
40676;DHT22;26359;48.750;9.314;2023-08-30T06:48:31;13.70;99.90
40676;DHT22;26359;48.750;9.314;2023-08-30T06:50:58;13.80;99.90
40676;DHT22;26359;48.750;9.314;2023-08-30T06:53:25;13.80;99.90
40676;DHT22;26359;48.750;9.314;2023-08-30T06:56:00;13.80;99.90
40676;DHT22;26359;48.750;9.314;2023-08-30T06:58:26;13.80;99.90
40676;DHT22;26359;48.750;9.314;2023-08-30T07:00:52;13.80;99.90
40676;DHT22;26359;48.750;9.314;2023-08-30T07:03:17;13.80;99.90
40676;DHT22;26359;48.750;9.314;2023-08-30T07:05:43;13.90;99.90
40676;DHT22;26359;48.750;9.314;2023-08-30T07:08:09;13.90;99.90
40676;DHT22;26359;48.750;9.314;2023-08-30T07:10:35;14.00;99.90
40676;DHT22;26359;48.750;9.314;2023-08-30T07:13:00;14.10;99.90
40676;DHT22;26359;48.750;9.314;2023-08-30T07:15:26;14.10;99.90
40676;DHT22;26359;48.750;9.314;2023-08-30T07:17:51;14.20;99.90
40676;DHT22;26359;48.750;9.314;2023-08-30T07:20:17;14.30;99.90
40676;DHT22;26359;48.750;9.314;2023-08-30T07:22:42;14.30;99.90
40676;DHT22;26359;48.750;9.314;2023-08-30T07:25:08;14.20;99.90
40676;DHT22;26359;48.750;9.314;2023-08-30T07:27:36;14.30;99.90
40676;DHT22;26359;48.750;9.314;2023-08-30T07:30:01;14.30;99.90
40676;DHT22;26359;48.750;9.314;2023-08-30T07:32:27;14.40;99.90
40676;DHT22;26359;48.750;9.314;2023-08-30T07:34:52;14.50;99.90
40676;DHT22;26359;48.750;9.314;2023-08-30T07:37:20;14.40;99.90
40676;DHT22;26359;48.750;9.314;2023-08-30T07:39:45;14.40;99.90
40676;DHT22;26359;48.750;9.314;2023-08-30T07:42:11;14.40;99.90
40676;DHT22;26359;48.750;9.314;2023-08-30T07:44:36;14.30;99.90
40676;DHT22;26359;48.750;9.314;2023-08-30T07:47:02;14.30;99.90
40676;DHT22;26359;48.750;9.314;2023-08-30T07:49:28;14.30;99.90
40676;DHT22;26359;48.750;9.314;2023-08-30T07:51:54;14.40;99.90
40676;DHT22;26359;48.750;9.314;2023-08-30T07:54:19;14.30;99.90
40676;DHT22;26359;48.750;9.314;2023-08-30T07:56:45;14.30;99.90
40676;DHT22;26359;48.750;9.314;2023-08-30T07:59:10;14.30;99.90
40676;DHT22;26359;48.750;9.314;2023-08-30T08:01:35;14.40;99.90
40676;DHT22;26359;48.750;9.314;2023-08-30T08:04:01;14.40;99.90
40676;DHT22;26359;48.750;9.314;2023-08-30T08:06:27;14.50;99.90
40676;DHT22;26359;48.750;9.314;2023-08-30T08:08:52;14.40;99.90
40676;DHT22;26359;48.750;9.314;2023-08-30T08:11:18;14.40;99.90
40676;DHT22;26359;48.750;9.314;2023-08-30T08:13:43;14.60;99.90
40676;DHT22;26359;48.750;9.314;2023-08-30T08:16:09;14.50;99.90
40676;DHT22;26359;48.750;9.314;2023-08-30T08:18:34;14.60;99.90
40676;DHT22;26359;48.750;9.314;2023-08-30T08:21:00;14.70;99.90
40676;DHT22;26359;48.750;9.314;2023-08-30T08:23:25;14.70;99.90
40676;DHT22;26359;48.750;9.314;2023-08-30T08:25:57;14.70;99.90
40676;DHT22;26359;48.750;9.314;2023-08-30T08:28:23;14.70;99.90
40676;DHT22;26359;48.750;9.314;2023-08-30T08:30:48;14.80;99.90
40676;DHT22;26359;48.750;9.314;2023-08-30T08:33:16;14.80;99.90
40676;DHT22;26359;48.750;9.314;2023-08-30T08:35:43;14.90;99.90
40676;DHT22;26359;48.750;9.314;2023-08-30T08:38:10;15.00;99.90
40676;DHT22;26359;48.750;9.314;2023-08-30T08:40:38;15.10;99.90
40676;DHT22;26359;48.750;9.314;2023-08-30T08:43:05;15.10;99.90
40676;DHT22;26359;48.750;9.314;2023-08-30T08:45:34;15.10;99.90
40676;DHT22;26359;48.750;9.314;2023-08-30T08:48:01;15.10;99.90
40676;DHT22;26359;48.750;9.314;2023-08-30T08:50:29;15.10;99.90
40676;DHT22;26359;48.750;9.314;2023-08-30T08:52:55;15.20;99.90
40676;DHT22;26359;48.750;9.314;2023-08-30T08:55:21;15.30;99.90
40676;DHT22;26359;48.750;9.314;2023-08-30T08:57:48;15.30;99.90
40676;DHT22;26359;48.750;9.314;2023-08-30T09:00:14;15.30;99.90
40676;DHT22;26359;48.750;9.314;2023-08-30T09:02:42;15.40;99.90
40676;DHT22;26359;48.750;9.314;2023-08-30T09:05:08;15.50;99.90
40676;DHT22;26359;48.750;9.314;2023-08-30T09:07:35;15.60;99.90
40676;DHT22;26359;48.750;9.314;2023-08-30T09:10:01;15.60;99.90
40676;DHT22;26359;48.750;9.314;2023-08-30T09:12:27;15.70;99.90
40676;DHT22;26359;48.750;9.314;2023-08-30T09:14:54;15.70;99.90
40676;DHT22;26359;48.750;9.314;2023-08-30T09:17:20;15.80;99.90
40676;DHT22;26359;48.750;9.314;2023-08-30T09:19:46;15.90;99.90
40676;DHT22;26359;48.750;9.314;2023-08-30T09:22:11;16.00;99.90
40676;DHT22;26359;48.750;9.314;2023-08-30T09:24:40;16.00;99.90
40676;DHT22;26359;48.750;9.314;2023-08-30T09:27:06;16.10;99.90
40676;DHT22;26359;48.750;9.314;2023-08-30T09:29:32;16.20;99.90
40676;DHT22;26359;48.750;9.314;2023-08-30T09:31:57;16.30;99.90
40676;DHT22;26359;48.750;9.314;2023-08-30T09:34:24;16.30;99.90
40676;DHT22;26359;48.750;9.314;2023-08-30T09:36:51;16.40;99.90
40676;DHT22;26359;48.750;9.314;2023-08-30T09:39:16;16.40;99.90
40676;DHT22;26359;48.750;9.314;2023-08-30T09:41:44;16.50;99.90
40676;DHT22;26359;48.750;9.314;2023-08-30T09:44:17;16.50;99.90
40676;DHT22;26359;48.750;9.314;2023-08-30T09:46:49;16.60;99.90
40676;DHT22;26359;48.750;9.314;2023-08-30T09:49:15;16.70;99.90
40676;DHT22;26359;48.750;9.314;2023-08-30T09:51:41;16.80;99.90
40676;DHT22;26359;48.750;9.314;2023-08-30T09:54:20;16.70;99.90
40676;DHT22;26359;48.750;9.314;2023-08-30T09:56:46;16.80;99.90
40676;DHT22;26359;48.750;9.314;2023-08-30T09:59:14;16.70;99.90
40676;DHT22;26359;48.750;9.314;2023-08-30T10:01:43;16.80;99.90
40676;DHT22;26359;48.750;9.314;2023-08-30T10:04:10;17.00;99.90
40676;DHT22;26359;48.750;9.314;2023-08-30T10:06:39;17.00;99.90
40676;DHT22;26359;48.750;9.314;2023-08-30T10:09:06;17.20;99.90
40676;DHT22;26359;48.750;9.314;2023-08-30T10:11:34;17.30;99.90
40676;DHT22;26359;48.750;9.314;2023-08-30T10:14:00;17.50;99.90
40676;DHT22;26359;48.750;9.314;2023-08-30T10:16:27;17.60;99.90
40676;DHT22;26359;48.750;9.314;2023-08-30T10:19:05;17.80;99.90
40676;DHT22;26359;48.750;9.314;2023-08-30T10:21:35;18.10;99.90
40676;DHT22;26359;48.750;9.314;2023-08-30T10:24:02;18.20;99.90
40676;DHT22;26359;48.750;9.314;2023-08-30T10:26:30;18.30;99.90
40676;DHT22;26359;48.750;9.314;2023-08-30T10:28:58;18.40;99.90
40676;DHT22;26359;48.750;9.314;2023-08-30T10:31:24;18.50;99.90
40676;DHT22;26359;48.750;9.314;2023-08-30T10:33:53;18.70;99.90
40676;DHT22;26359;48.750;9.314;2023-08-30T10:36:26;18.90;99.90
40676;DHT22;26359;48.750;9.314;2023-08-30T10:38:53;19.00;99.90
40676;DHT22;26359;48.750;9.314;2023-08-30T10:41:25;19.20;99.90
40676;DHT22;26359;48.750;9.314;2023-08-30T10:43:57;19.30;99.90
40676;DHT22;26359;48.750;9.314;2023-08-30T10:46:30;19.50;99.90
40676;DHT22;26359;48.750;9.314;2023-08-30T10:48:56;19.50;99.90
40676;DHT22;26359;48.750;9.314;2023-08-30T10:51:39;19.40;99.90
40676;DHT22;26359;48.750;9.314;2023-08-30T10:54:12;19.70;99.90
40676;DHT22;26359;48.750;9.314;2023-08-30T10:56:58;19.60;99.90
40676;DHT22;26359;48.750;9.314;2023-08-30T10:59:26;19.70;99.90
40676;DHT22;26359;48.750;9.314;2023-08-30T11:01:53;19.80;99.90
40676;DHT22;26359;48.750;9.314;2023-08-30T11:04:19;19.90;99.90
40676;DHT22;26359;48.750;9.314;2023-08-30T11:06:46;20.10;99.90
40676;DHT22;26359;48.750;9.314;2023-08-30T11:09:13;20.20;99.90
40676;DHT22;26359;48.750;9.314;2023-08-30T11:11:40;20.20;99.90
40676;DHT22;26359;48.750;9.314;2023-08-30T11:14:07;20.30;99.90
40676;DHT22;26359;48.750;9.314;2023-08-30T11:16:34;20.40;99.90
40676;DHT22;26359;48.750;9.314;2023-08-30T11:19:04;20.40;99.90
40676;DHT22;26359;48.750;9.314;2023-08-30T11:21:36;20.70;99.90
40676;DHT22;26359;48.750;9.314;2023-08-30T11:24:06;20.90;99.90
40676;DHT22;26359;48.750;9.314;2023-08-30T11:26:32;21.00;99.90
40676;DHT22;26359;48.750;9.314;2023-08-30T11:29:00;21.00;99.90
40676;DHT22;26359;48.750;9.314;2023-08-30T11:31:28;21.10;99.90
40676;DHT22;26359;48.750;9.314;2023-08-30T11:33:56;21.00;99.90
40676;DHT22;26359;48.750;9.314;2023-08-30T11:36:25;21.00;99.90
40676;DHT22;26359;48.750;9.314;2023-08-30T11:38:51;21.00;99.90
40676;DHT22;26359;48.750;9.314;2023-08-30T11:41:17;21.10;99.90
40676;DHT22;26359;48.750;9.314;2023-08-30T11:43:45;21.10;99.90
40676;DHT22;26359;48.750;9.314;2023-08-30T11:46:10;21.40;99.90
40676;DHT22;26359;48.750;9.314;2023-08-30T11:48:39;21.60;99.90
40676;DHT22;26359;48.750;9.314;2023-08-30T11:51:05;21.90;99.90
40676;DHT22;26359;48.750;9.314;2023-08-30T11:53:31;22.10;99.90
40676;DHT22;26359;48.750;9.314;2023-08-30T11:55:57;22.20;99.90
40676;DHT22;26359;48.750;9.314;2023-08-30T11:58:22;22.10;99.90
40676;DHT22;26359;48.750;9.314;2023-08-30T12:00:53;21.80;99.90
40676;DHT22;26359;48.750;9.314;2023-08-30T12:03:20;21.70;99.90
40676;DHT22;26359;48.750;9.314;2023-08-30T12:05:49;21.60;99.90
40676;DHT22;26359;48.750;9.314;2023-08-30T12:10:45;21.20;99.90
40676;DHT22;26359;48.750;9.314;2023-08-30T12:13:32;21.20;99.90
40676;DHT22;26359;48.750;9.314;2023-08-30T12:15:59;21.00;99.90
40676;DHT22;26359;48.750;9.314;2023-08-30T12:18:29;20.80;99.90
40676;DHT22;26359;48.750;9.314;2023-08-30T12:21:00;20.30;99.90
40676;DHT22;26359;48.750;9.314;2023-08-30T12:23:27;19.40;99.90
40676;DHT22;26359;48.750;9.314;2023-08-30T12:26:11;18.90;99.90
40676;DHT22;26359;48.750;9.314;2023-08-30T12:28:41;18.40;99.90
40676;DHT22;26359;48.750;9.314;2023-08-30T12:31:09;18.10;99.90
40676;DHT22;26359;48.750;9.314;2023-08-30T12:33:36;17.70;99.90
40676;DHT22;26359;48.750;9.314;2023-08-30T12:36:02;17.40;99.90
40676;DHT22;26359;48.750;9.314;2023-08-30T12:38:29;17.20;99.90
40676;DHT22;26359;48.750;9.314;2023-08-30T12:40:55;16.80;99.90
40676;DHT22;26359;48.750;9.314;2023-08-30T12:43:21;16.60;99.90
40676;DHT22;26359;48.750;9.314;2023-08-30T12:45:48;16.30;99.90
40676;DHT22;26359;48.750;9.314;2023-08-30T12:48:14;16.20;99.90
40676;DHT22;26359;48.750;9.314;2023-08-30T12:50:45;16.20;99.90
40676;DHT22;26359;48.750;9.314;2023-08-30T12:53:11;16.30;99.90
40676;DHT22;26359;48.750;9.314;2023-08-30T12:55:36;16.40;99.90
40676;DHT22;26359;48.750;9.314;2023-08-30T12:58:06;16.50;99.90
40676;DHT22;26359;48.750;9.314;2023-08-30T13:00:32;16.60;99.90
40676;DHT22;26359;48.750;9.314;2023-08-30T13:02:58;16.50;99.90
40676;DHT22;26359;48.750;9.314;2023-08-30T13:05:24;16.70;99.90
40676;DHT22;26359;48.750;9.314;2023-08-30T13:07:50;16.80;99.90
40676;DHT22;26359;48.750;9.314;2023-08-30T13:10:15;16.90;99.90
40676;DHT22;26359;48.750;9.314;2023-08-30T13:12:42;17.00;99.90
40676;DHT22;26359;48.750;9.314;2023-08-30T13:15:08;17.10;99.90
40676;DHT22;26359;48.750;9.314;2023-08-30T13:17:33;17.30;99.90
40676;DHT22;26359;48.750;9.314;2023-08-30T13:19:59;17.20;99.90
40676;DHT22;26359;48.750;9.314;2023-08-30T13:22:26;17.30;99.90
40676;DHT22;26359;48.750;9.314;2023-08-30T13:24:52;17.40;99.90
40676;DHT22;26359;48.750;9.314;2023-08-30T13:27:18;17.50;99.90
40676;DHT22;26359;48.750;9.314;2023-08-30T13:29:44;17.50;99.90
40676;DHT22;26359;48.750;9.314;2023-08-30T13:32:10;17.50;99.90
40676;DHT22;26359;48.750;9.314;2023-08-30T13:34:35;17.60;99.90
40676;DHT22;26359;48.750;9.314;2023-08-30T13:37:01;17.60;99.90
40676;DHT22;26359;48.750;9.314;2023-08-30T13:39:27;17.60;99.90
40676;DHT22;26359;48.750;9.314;2023-08-30T13:41:52;17.60;99.90
40676;DHT22;26359;48.750;9.314;2023-08-30T13:44:18;17.60;99.90
40676;DHT22;26359;48.750;9.314;2023-08-30T13:46:44;17.60;99.90
40676;DHT22;26359;48.750;9.314;2023-08-30T13:49:10;17.60;99.90
40676;DHT22;26359;48.750;9.314;2023-08-30T13:51:35;17.60;99.90
40676;DHT22;26359;48.750;9.314;2023-08-30T13:54:01;17.80;99.90
40676;DHT22;26359;48.750;9.314;2023-08-30T13:56:27;17.90;99.90
40676;DHT22;26359;48.750;9.314;2023-08-30T13:58:52;18.00;99.90
40676;DHT22;26359;48.750;9.314;2023-08-30T14:01:18;18.10;99.90
40676;DHT22;26359;48.750;9.314;2023-08-30T14:03:44;18.40;99.90
40676;DHT22;26359;48.750;9.314;2023-08-30T14:06:09;18.60;99.90
40676;DHT22;26359;48.750;9.314;2023-08-30T14:08:35;19.00;99.90
40676;DHT22;26359;48.750;9.314;2023-08-30T14:11:01;19.10;99.90
40676;DHT22;26359;48.750;9.314;2023-08-30T14:13:27;19.10;99.90
40676;DHT22;26359;48.750;9.314;2023-08-30T14:15:59;19.10;99.90
40676;DHT22;26359;48.750;9.314;2023-08-30T14:18:26;19.40;99.90
40676;DHT22;26359;48.750;9.314;2023-08-30T14:20:55;19.90;99.90
40676;DHT22;26359;48.750;9.314;2023-08-30T14:23:23;20.20;99.90
40676;DHT22;26359;48.750;9.314;2023-08-30T14:25:58;20.70;99.90
40676;DHT22;26359;48.750;9.314;2023-08-30T14:28:24;20.70;99.90
40676;DHT22;26359;48.750;9.314;2023-08-30T14:30:49;20.70;99.90
40676;DHT22;26359;48.750;9.314;2023-08-30T14:33:15;20.70;99.90
40676;DHT22;26359;48.750;9.314;2023-08-30T14:35:44;20.70;99.90
40676;DHT22;26359;48.750;9.314;2023-08-30T14:38:10;20.60;99.90
40676;DHT22;26359;48.750;9.314;2023-08-30T14:40:35;20.50;99.90
40676;DHT22;26359;48.750;9.314;2023-08-30T14:43:03;20.40;99.90
40676;DHT22;26359;48.750;9.314;2023-08-30T14:45:29;20.20;99.90
40676;DHT22;26359;48.750;9.314;2023-08-30T14:47:54;20.10;99.90
40676;DHT22;26359;48.750;9.314;2023-08-30T14:50:20;20.00;99.90
40676;DHT22;26359;48.750;9.314;2023-08-30T14:52:46;19.90;99.90
40676;DHT22;26359;48.750;9.314;2023-08-30T14:55:11;19.80;99.90
40676;DHT22;26359;48.750;9.314;2023-08-30T14:57:37;19.70;99.90
40676;DHT22;26359;48.750;9.314;2023-08-30T15:00:03;19.60;99.90
40676;DHT22;26359;48.750;9.314;2023-08-30T15:02:29;19.50;99.90
40676;DHT22;26359;48.750;9.314;2023-08-30T15:04:56;19.40;99.90
40676;DHT22;26359;48.750;9.314;2023-08-30T15:07:22;19.30;99.90
40676;DHT22;26359;48.750;9.314;2023-08-30T15:09:47;19.20;99.90
40676;DHT22;26359;48.750;9.314;2023-08-30T15:12:13;19.10;99.90
40676;DHT22;26359;48.750;9.314;2023-08-30T15:14:38;18.90;99.90
40676;DHT22;26359;48.750;9.314;2023-08-30T15:17:06;18.90;99.90
40676;DHT22;26359;48.750;9.314;2023-08-30T15:19:32;18.90;99.90
40676;DHT22;26359;48.750;9.314;2023-08-30T15:21:57;18.90;99.90
40676;DHT22;26359;48.750;9.314;2023-08-30T15:24:23;19.10;99.90
40676;DHT22;26359;48.750;9.314;2023-08-30T15:26:48;19.30;99.90
40676;DHT22;26359;48.750;9.314;2023-08-30T15:29:14;19.40;99.90
40676;DHT22;26359;48.750;9.314;2023-08-30T15:31:39;19.60;99.90